FIN3ML EFHK-EGLL
Flight info
| Callsign | FIN3ML |
|---|---|
| Flight time | 0h 58m |
| Altitude | 40000 |
| Route | NUNTO Y367 OLPED DCT OBEVI DCT NISIX DCT DOROR DCT LONAM DCT BINBO DCT AKOKO N866 BUKUT P7 BARMI |
| Aircraft | A359/H-SDE2E3GHIJ3J4J5LM1ORWXY/LB1D1 |
Departure
| Time | 2026-04-22 09:38 |
|---|---|
| Airport | Helsinki Vantaa Airport (EFHK) |
Arrival
| Time | 2026-04-22 10:36 |
|---|---|
| Airport | London Heathrow Airport (EGLL) |
| Time | Latitude | Longitude | Altitude | Speed | Heading |
|---|---|---|---|---|---|
| 2026-04-22 08:51 | 60.31330 | 24.95747 | 170 ft | 0 kts | 316° |
| 2026-04-22 09:18 | 60.31316 | 24.95775 | 170 ft | 3 kts | 317° |
| 2026-04-22 09:18 | 60.31298 | 24.95807 | 170 ft | 3 kts | 314° |
| 2026-04-22 09:18 | 60.31289 | 24.95830 | 170 ft | 3 kts | 281° |
| 2026-04-22 09:19 | 60.31287 | 24.95870 | 170 ft | 3 kts | 251° |
| 2026-04-22 09:19 | 60.31297 | 24.95904 | 170 ft | 3 kts | 224° |
| 2026-04-22 09:19 | 60.31311 | 24.95931 | 170 ft | 0 kts | 227° |
| 2026-04-22 09:25 | 60.31308 | 24.95926 | 170 ft | 3 kts | 227° |
| 2026-04-22 09:25 | 60.31277 | 24.95857 | 163 ft | 11 kts | 227° |
| 2026-04-22 09:26 | 60.31232 | 24.95759 | 169 ft | 9 kts | 227° |
| 2026-04-22 09:26 | 60.31179 | 24.95642 | 169 ft | 13 kts | 227° |
| 2026-04-22 09:26 | 60.31176 | 24.95504 | 169 ft | 10 kts | 305° |
| 2026-04-22 09:26 | 60.31232 | 24.95393 | 169 ft | 13 kts | 317° |
| 2026-04-22 09:27 | 60.31304 | 24.95258 | 169 ft | 16 kts | 317° |
| 2026-04-22 09:27 | 60.31389 | 24.95098 | 169 ft | 17 kts | 315° |
| 2026-04-22 09:27 | 60.31453 | 24.94996 | 169 ft | 10 kts | 342° |
| 2026-04-22 09:27 | 60.31517 | 24.95066 | 169 ft | 13 kts | 47° |
| 2026-04-22 09:28 | 60.31587 | 24.95221 | 169 ft | 17 kts | 47° |
| 2026-04-22 09:28 | 60.31678 | 24.95421 | 169 ft | 21 kts | 47° |
| 2026-04-22 09:28 | 60.31772 | 24.95626 | 170 ft | 18 kts | 47° |
| 2026-04-22 09:28 | 60.31866 | 24.95830 | 170 ft | 22 kts | 47° |
| 2026-04-22 09:29 | 60.31971 | 24.96063 | 170 ft | 21 kts | 48° |
| 2026-04-22 09:29 | 60.32071 | 24.96286 | 170 ft | 22 kts | 47° |
| 2026-04-22 09:29 | 60.32181 | 24.96529 | 170 ft | 23 kts | 47° |
| 2026-04-22 09:29 | 60.32264 | 24.96711 | 170 ft | 17 kts | 47° |
| 2026-04-22 09:30 | 60.32325 | 24.96801 | 170 ft | 8 kts | 7° |
| 2026-04-22 09:30 | 60.32383 | 24.96765 | 170 ft | 10 kts | 334° |
| 2026-04-22 09:30 | 60.32449 | 24.96695 | 171 ft | 11 kts | 331° |
| 2026-04-22 09:30 | 60.32524 | 24.96618 | 170 ft | 13 kts | 333° |
| 2026-04-22 09:31 | 60.32608 | 24.96524 | 171 ft | 14 kts | 330° |
| 2026-04-22 09:31 | 60.32697 | 24.96423 | 173 ft | 15 kts | 330° |
| 2026-04-22 09:31 | 60.32768 | 24.96341 | 174 ft | 9 kts | 330° |
| 2026-04-22 09:31 | 60.32825 | 24.96274 | 176 ft | 10 kts | 330° |
| 2026-04-22 09:32 | 60.32887 | 24.96197 | 177 ft | 10 kts | 323° |
| 2026-04-22 09:32 | 60.32905 | 24.96096 | 178 ft | 7 kts | 263° |
| 2026-04-22 09:32 | 60.32906 | 24.95991 | 178 ft | 8 kts | 291° |
| 2026-04-22 09:32 | 60.32946 | 24.95916 | 178 ft | 9 kts | 328° |
| 2026-04-22 09:33 | 60.33003 | 24.95846 | 179 ft | 10 kts | 330° |
| 2026-04-22 09:33 | 60.33066 | 24.95771 | 180 ft | 11 kts | 325° |
| 2026-04-22 09:33 | 60.33125 | 24.95671 | 181 ft | 11 kts | 317° |
| 2026-04-22 09:33 | 60.33181 | 24.95559 | 183 ft | 11 kts | 313° |
| 2026-04-22 09:34 | 60.33202 | 24.95438 | 187 ft | 5 kts | 259° |
| 2026-04-22 09:34 | 60.33185 | 24.95375 | 197 ft | 6 kts | 239° |
| 2026-04-22 09:34 | 60.33162 | 24.95307 | 200 ft | 6 kts | 233° |
| 2026-04-22 09:35 | 60.33116 | 24.95145 | 189 ft | 7 kts | 259° |
| 2026-04-22 09:35 | 60.33113 | 24.95055 | 204 ft | 6 kts | 272° |
| 2026-04-22 09:35 | 60.33114 | 24.94950 | 192 ft | 8 kts | 271° |
| 2026-04-22 09:35 | 60.33116 | 24.94819 | 193 ft | 11 kts | 271° |
| 2026-04-22 09:36 | 60.33117 | 24.94654 | 195 ft | 13 kts | 271° |
| 2026-04-22 09:36 | 60.33121 | 24.94465 | 196 ft | 14 kts | 273° |
| 2026-04-22 09:36 | 60.33096 | 24.94348 | 202 ft | 0 kts | 229° |
| 2026-04-22 09:37 | 60.33078 | 24.94306 | 206 ft | 16 kts | 229° |
| 2026-04-22 09:37 | 60.32888 | 24.93885 | 205 ft | 74 kts | 227° |
| 2026-04-22 09:37 | 60.32408 | 24.92793 | 176 ft | 132 kts | 233° |
| 2026-04-22 09:37 | 60.31688 | 24.91266 | 450 ft | 158 kts | 231° |
| 2026-04-22 09:38 | 60.30932 | 24.89721 | 1209 ft | 151 kts | 238° |
| 2026-04-22 09:38 | 60.30583 | 24.87765 | 1879 ft | 156 kts | 268° |
| 2026-04-22 09:38 | 60.30540 | 24.85452 | 2259 ft | 175 kts | 274° |
| 2026-04-22 09:38 | 60.30522 | 24.82852 | 2600 ft | 195 kts | 274° |
| 2026-04-22 09:39 | 60.30476 | 24.80021 | 3050 ft | 211 kts | 273° |
| 2026-04-22 09:39 | 60.30214 | 24.76929 | 3447 ft | 237 kts | 260° |
| 2026-04-22 09:39 | 60.29637 | 24.73716 | 3868 ft | 250 kts | 256° |
| 2026-04-22 09:39 | 60.28967 | 24.70457 | 3965 ft | 253 kts | 255° |
| 2026-04-22 09:40 | 60.28284 | 24.67191 | 3962 ft | 253 kts | 256° |
| 2026-04-22 09:40 | 60.26988 | 24.60916 | 3971 ft | 253 kts | 255° |
| 2026-04-22 09:40 | 60.24253 | 24.47840 | 4021 ft | 255 kts | 251° |
| 2026-04-22 09:40 | 60.20780 | 24.34834 | 6602 ft | 272 kts | 249° |
| 2026-04-22 09:41 | 60.17119 | 24.21306 | 9438 ft | 280 kts | 248° |
| 2026-04-22 09:41 | 60.13147 | 24.06655 | 11056 ft | 329 kts | 247° |
| 2026-04-22 09:41 | 60.08541 | 23.89918 | 13115 ft | 349 kts | 249° |
| 2026-04-22 09:41 | 60.04689 | 23.71763 | 15137 ft | 360 kts | 255° |
| 2026-04-22 09:42 | 60.00880 | 23.52810 | 17048 ft | 375 kts | 253° |
| 2026-04-22 09:42 | 59.96802 | 23.33226 | 18824 ft | 389 kts | 253° |
| 2026-04-22 09:42 | 59.92561 | 23.13038 | 20394 ft | 401 kts | 252° |
| 2026-04-22 09:42 | 59.88150 | 22.92191 | 21887 ft | 414 kts | 252° |
| 2026-04-22 09:43 | 59.83570 | 22.70816 | 23285 ft | 426 kts | 252° |
| 2026-04-22 09:43 | 59.78823 | 22.48865 | 24380 ft | 439 kts | 252° |
| 2026-04-22 09:43 | 59.73969 | 22.26658 | 25426 ft | 451 kts | 252° |
| 2026-04-22 09:43 | 59.68885 | 22.03587 | 26525 ft | 463 kts | 252° |
| 2026-04-22 09:44 | 59.63647 | 21.79880 | 27733 ft | 477 kts | 251° |
| 2026-04-22 09:44 | 59.58197 | 21.55541 | 29011 ft | 492 kts | 251° |
| 2026-04-22 09:44 | 59.52489 | 21.30594 | 30290 ft | 507 kts | 250° |
| 2026-04-22 09:44 | 59.46539 | 21.05004 | 31511 ft | 520 kts | 250° |
| 2026-04-22 09:45 | 59.40419 | 20.78921 | 32662 ft | 532 kts | 249° |
| 2026-04-22 09:45 | 59.34085 | 20.52371 | 33726 ft | 543 kts | 249° |
| 2026-04-22 09:45 | 59.27582 | 20.25391 | 34753 ft | 550 kts | 248° |
| 2026-04-22 09:45 | 59.21044 | 19.98654 | 36344 ft | 542 kts | 248° |
| 2026-04-22 09:46 | 59.14532 | 19.72301 | 37782 ft | 536 kts | 247° |
| 2026-04-22 09:46 | 59.08053 | 19.46384 | 39051 ft | 530 kts | 246° |
| 2026-04-22 09:46 | 59.01586 | 19.20817 | 39922 ft | 526 kts | 246° |
| 2026-04-22 09:46 | 58.95056 | 18.95292 | 40130 ft | 529 kts | 245° |
| 2026-04-22 09:47 | 58.82492 | 18.46998 | 40137 ft | 529 kts | 244° |
| 2026-04-22 09:47 | 58.69088 | 17.96596 | 40150 ft | 529 kts | 244° |
| 2026-04-22 09:48 | 58.55483 | 17.46560 | 40165 ft | 529 kts | 243° |
| 2026-04-22 09:48 | 58.41675 | 16.96882 | 40177 ft | 529 kts | 243° |
| 2026-04-22 09:49 | 58.27652 | 16.47507 | 40193 ft | 530 kts | 242° |
| 2026-04-22 09:49 | 58.13431 | 15.98494 | 40210 ft | 531 kts | 242° |
| 2026-04-22 09:50 | 58.01447 | 15.57977 | 40220 ft | 531 kts | 241° |
| 2026-04-22 09:50 | 57.86869 | 15.09626 | 40232 ft | 530 kts | 240° |
| 2026-04-22 09:51 | 57.72167 | 14.61851 | 40245 ft | 528 kts | 239° |
| 2026-04-22 09:51 | 57.57312 | 14.14555 | 40244 ft | 527 kts | 239° |
| 2026-04-22 09:52 | 57.42322 | 13.67764 | 40256 ft | 526 kts | 238° |
| 2026-04-22 09:52 | 57.27206 | 13.21498 | 40271 ft | 524 kts | 238° |
| 2026-04-22 09:53 | 57.11976 | 12.75773 | 40283 ft | 523 kts | 238° |
| 2026-04-22 09:53 | 56.96595 | 12.30468 | 40302 ft | 522 kts | 238° |
| 2026-04-22 09:54 | 56.81073 | 11.85595 | 40317 ft | 521 kts | 237° |
| 2026-04-22 09:54 | 56.65412 | 11.41154 | 40332 ft | 521 kts | 237° |
| 2026-04-22 09:55 | 56.49616 | 10.97143 | 40339 ft | 520 kts | 237° |
| 2026-04-22 09:55 | 56.33666 | 10.53498 | 40345 ft | 520 kts | 236° |
| 2026-04-22 09:56 | 56.17609 | 10.10341 | 40344 ft | 519 kts | 236° |
| 2026-04-22 09:56 | 56.01428 | 9.67610 | 40351 ft | 517 kts | 236° |
| 2026-04-22 09:57 | 55.85144 | 9.25347 | 40372 ft | 516 kts | 235° |
| 2026-04-22 09:57 | 55.68762 | 8.83553 | 40375 ft | 515 kts | 235° |
| 2026-04-22 09:58 | 55.52402 | 8.42517 | 40401 ft | 513 kts | 234° |
| 2026-04-22 09:58 | 55.35848 | 8.01680 | 40416 ft | 511 kts | 234° |
| 2026-04-22 09:59 | 55.19204 | 7.61293 | 40428 ft | 510 kts | 234° |
| 2026-04-22 09:59 | 55.02445 | 7.21281 | 40438 ft | 510 kts | 233° |
| 2026-04-22 10:00 | 54.87655 | 6.79272 | 40438 ft | 508 kts | 239° |
| 2026-04-22 10:00 | 54.73131 | 6.37301 | 40449 ft | 507 kts | 239° |
| 2026-04-22 10:01 | 54.58494 | 5.95733 | 40464 ft | 506 kts | 239° |
| 2026-04-22 10:01 | 54.43770 | 5.54614 | 40444 ft | 504 kts | 239° |
| 2026-04-22 10:02 | 54.30461 | 5.18027 | 40445 ft | 502 kts | 238° |
| 2026-04-22 10:02 | 54.15562 | 4.77701 | 40456 ft | 501 kts | 238° |
| 2026-04-22 10:03 | 54.00572 | 4.37777 | 40452 ft | 500 kts | 238° |
| 2026-04-22 10:03 | 53.85405 | 3.98151 | 40445 ft | 500 kts | 234° |
| 2026-04-22 10:04 | 53.75322 | 3.81972 | 40449 ft | 501 kts | 220° |
| 2026-04-22 10:04 | 53.64462 | 3.67157 | 40444 ft | 501 kts | 219° |
| 2026-04-22 10:04 | 53.48990 | 3.46135 | 40445 ft | 501 kts | 219° |
| 2026-04-22 10:05 | 53.43577 | 3.38783 | 40447 ft | 501 kts | 219° |
| 2026-04-22 10:05 | 53.37941 | 3.31932 | 40441 ft | 502 kts | 219° |
| 2026-04-22 10:06 | 53.35348 | 3.28718 | 40453 ft | 495 kts | 232° |
| 2026-04-22 10:06 | 53.30975 | 3.22709 | 40426 ft | 498 kts | 208° |
| 2026-04-22 10:07 | 53.24473 | 3.18592 | 40424 ft | 501 kts | 198° |
| 2026-04-22 10:07 | 53.17938 | 3.14558 | 40313 ft | 499 kts | 206° |
| 2026-04-22 10:08 | 53.09060 | 3.07320 | 38745 ft | 494 kts | 210° |
| 2026-04-22 10:08 | 52.96896 | 2.96876 | 36020 ft | 490 kts | 209° |
| 2026-04-22 10:08 | 52.84935 | 2.86872 | 34069 ft | 471 kts | 208° |
| 2026-04-22 10:08 | 52.73269 | 2.77264 | 31947 ft | 455 kts | 206° |
| 2026-04-22 10:09 | 52.62225 | 2.68412 | 30419 ft | 444 kts | 206° |
| 2026-04-22 10:09 | 52.51190 | 2.59408 | 30400 ft | 442 kts | 207° |
| 2026-04-22 10:09 | 52.40226 | 2.50477 | 29984 ft | 435 kts | 207° |
| 2026-04-22 10:09 | 52.29361 | 2.41688 | 29271 ft | 434 kts | 207° |
| 2026-04-22 10:10 | 52.18556 | 2.32988 | 28663 ft | 430 kts | 206° |
| 2026-04-22 10:10 | 52.08536 | 2.22792 | 28018 ft | 428 kts | 228° |
| 2026-04-22 10:10 | 52.00714 | 2.08230 | 27405 ft | 427 kts | 230° |
| 2026-04-22 10:10 | 51.92914 | 1.93829 | 26792 ft | 423 kts | 230° |
| 2026-04-22 10:11 | 51.85151 | 1.79604 | 26173 ft | 420 kts | 230° |
| 2026-04-22 10:11 | 51.77430 | 1.65525 | 25562 ft | 417 kts | 231° |
| 2026-04-22 10:11 | 51.74391 | 1.53821 | 24600 ft | 409 kts | 266° |
| 2026-04-22 10:11 | 51.74117 | 1.49250 | 23990 ft | 411 kts | 266° |
| 2026-04-22 10:12 | 51.73858 | 1.44661 | 23372 ft | 410 kts | 266° |
| 2026-04-22 10:12 | 51.73585 | 1.40102 | 22855 ft | 407 kts | 266° |
| 2026-04-22 10:12 | 51.73303 | 1.35578 | 22339 ft | 403 kts | 266° |
| 2026-04-22 10:12 | 51.73017 | 1.31099 | 21794 ft | 401 kts | 265° |
| 2026-04-22 10:13 | 51.72726 | 1.26636 | 21265 ft | 399 kts | 265° |
| 2026-04-22 10:13 | 51.72437 | 1.22204 | 20748 ft | 396 kts | 264° |
| 2026-04-22 10:13 | 51.72117 | 1.17996 | 20254 ft | 394 kts | 262° |
| 2026-04-22 10:13 | 51.71789 | 1.13944 | 19828 ft | 391 kts | 262° |
| 2026-04-22 10:14 | 51.71450 | 1.09609 | 19357 ft | 389 kts | 262° |
| 2026-04-22 10:14 | 51.71163 | 1.05725 | 18931 ft | 388 kts | 263° |
| 2026-04-22 10:14 | 51.70853 | 1.01419 | 18445 ft | 385 kts | 263° |
| 2026-04-22 10:14 | 51.70549 | 0.97144 | 17934 ft | 382 kts | 263° |
| 2026-04-22 10:15 | 51.70253 | 0.92899 | 17414 ft | 381 kts | 263° |
| 2026-04-22 10:15 | 51.69961 | 0.88691 | 16804 ft | 373 kts | 263° |
| 2026-04-22 10:15 | 51.69667 | 0.84541 | 16145 ft | 373 kts | 263° |
| 2026-04-22 10:15 | 51.69374 | 0.80399 | 15492 ft | 371 kts | 263° |
| 2026-04-22 10:16 | 51.69085 | 0.76276 | 14859 ft | 369 kts | 262° |
| 2026-04-22 10:16 | 51.68796 | 0.72182 | 14231 ft | 366 kts | 262° |
| 2026-04-22 10:16 | 51.68510 | 0.68180 | 13553 ft | 360 kts | 262° |
| 2026-04-22 10:16 | 51.68236 | 0.64262 | 12861 ft | 345 kts | 263° |
| 2026-04-22 10:17 | 51.67968 | 0.60434 | 12180 ft | 333 kts | 262° |
| 2026-04-22 10:17 | 51.67714 | 0.56829 | 11521 ft | 323 kts | 262° |
| 2026-04-22 10:17 | 51.67458 | 0.53233 | 10873 ft | 315 kts | 262° |
| 2026-04-22 10:17 | 51.67210 | 0.49772 | 10224 ft | 308 kts | 262° |
| 2026-04-22 10:18 | 51.66968 | 0.46379 | 9539 ft | 302 kts | 262° |
| 2026-04-22 10:18 | 51.66724 | 0.43050 | 8858 ft | 297 kts | 262° |
| 2026-04-22 10:18 | 51.66472 | 0.39777 | 8187 ft | 292 kts | 261° |
| 2026-04-22 10:18 | 51.66214 | 0.36572 | 7873 ft | 283 kts | 261° |
| 2026-04-22 10:19 | 51.65968 | 0.33403 | 8023 ft | 290 kts | 261° |
| 2026-04-22 10:19 | 51.65709 | 0.30104 | 8289 ft | 301 kts | 261° |
| 2026-04-22 10:19 | 51.65454 | 0.26800 | 8349 ft | 302 kts | 261° |
| 2026-04-22 10:19 | 51.65195 | 0.23422 | 8346 ft | 303 kts | 261° |
| 2026-04-22 10:20 | 51.64941 | 0.20059 | 8344 ft | 303 kts | 261° |
| 2026-04-22 10:20 | 51.64692 | 0.16690 | 8346 ft | 303 kts | 262° |
| 2026-04-22 10:20 | 51.64535 | 0.13312 | 8342 ft | 302 kts | 265° |
| 2026-04-22 10:20 | 51.64431 | 0.09935 | 8348 ft | 303 kts | 265° |
| 2026-04-22 10:21 | 51.64331 | 0.06547 | 8341 ft | 303 kts | 265° |
| 2026-04-22 10:21 | 51.64230 | 0.03159 | 8347 ft | 303 kts | 265° |
| 2026-04-22 10:21 | 51.64129 | -0.00228 | 8345 ft | 303 kts | 265° |
| 2026-04-22 10:21 | 51.64028 | -0.03611 | 8351 ft | 303 kts | 266° |
| 2026-04-22 10:22 | 51.63924 | -0.06997 | 8427 ft | 303 kts | 265° |
| 2026-04-22 10:22 | 51.63821 | -0.10384 | 8440 ft | 303 kts | 265° |
| 2026-04-22 10:22 | 51.63718 | -0.13771 | 8448 ft | 303 kts | 265° |
| 2026-04-22 10:22 | 51.63611 | -0.17151 | 8451 ft | 303 kts | 265° |
| 2026-04-22 10:23 | 51.63505 | -0.20543 | 8453 ft | 303 kts | 265° |
| 2026-04-22 10:23 | 51.63402 | -0.23929 | 8458 ft | 303 kts | 265° |
| 2026-04-22 10:23 | 51.63292 | -0.27309 | 8459 ft | 303 kts | 266° |
| 2026-04-22 10:23 | 51.63182 | -0.30692 | 8456 ft | 303 kts | 265° |
| 2026-04-22 10:24 | 51.63073 | -0.34080 | 8449 ft | 303 kts | 265° |
| 2026-04-22 10:24 | 51.62968 | -0.37461 | 8320 ft | 303 kts | 265° |
| 2026-04-22 10:24 | 51.62863 | -0.40852 | 8326 ft | 303 kts | 265° |
| 2026-04-22 10:24 | 51.62756 | -0.44242 | 8321 ft | 303 kts | 265° |
| 2026-04-22 10:25 | 51.62650 | -0.47630 | 8313 ft | 303 kts | 265° |
| 2026-04-22 10:25 | 51.62544 | -0.51002 | 8099 ft | 298 kts | 266° |
| 2026-04-22 10:25 | 51.62440 | -0.54280 | 7943 ft | 290 kts | 266° |
| 2026-04-22 10:25 | 51.62335 | -0.57547 | 7537 ft | 292 kts | 266° |
| 2026-04-22 10:26 | 51.61999 | -0.60742 | 7255 ft | 286 kts | 249° |
| 2026-04-22 10:26 | 51.61245 | -0.63634 | 7160 ft | 275 kts | 242° |
| 2026-04-22 10:26 | 51.60435 | -0.66359 | 6999 ft | 267 kts | 241° |
| 2026-04-22 10:26 | 51.59640 | -0.69030 | 6797 ft | 263 kts | 241° |
| 2026-04-22 10:27 | 51.58855 | -0.71670 | 6523 ft | 261 kts | 240° |
| 2026-04-22 10:27 | 51.58074 | -0.74300 | 6243 ft | 260 kts | 240° |
| 2026-04-22 10:27 | 51.57300 | -0.76918 | 5960 ft | 259 kts | 240° |
| 2026-04-22 10:27 | 51.56533 | -0.79527 | 5667 ft | 257 kts | 240° |
| 2026-04-22 10:28 | 51.55775 | -0.82121 | 5390 ft | 256 kts | 241° |
| 2026-04-22 10:28 | 51.54946 | -0.84590 | 5207 ft | 245 kts | 226° |
| 2026-04-22 10:28 | 51.53672 | -0.86182 | 5081 ft | 224 kts | 195° |
| 2026-04-22 10:28 | 51.52222 | -0.86797 | 5016 ft | 209 kts | 182° |
| 2026-04-22 10:29 | 51.50817 | -0.87145 | 4894 ft | 200 kts | 181° |
| 2026-04-22 10:29 | 51.49474 | -0.87429 | 4775 ft | 187 kts | 177° |
| 2026-04-22 10:29 | 51.48278 | -0.86986 | 4451 ft | 173 kts | 141° |
| 2026-04-22 10:29 | 51.47482 | -0.85615 | 4113 ft | 167 kts | 115° |
| 2026-04-22 10:30 | 51.47407 | -0.83803 | 3892 ft | 165 kts | 82° |
| 2026-04-22 10:30 | 51.47566 | -0.81990 | 3692 ft | 164 kts | 85° |
| 2026-04-22 10:30 | 51.47636 | -0.80167 | 3472 ft | 164 kts | 88° |
| 2026-04-22 10:30 | 51.47646 | -0.78370 | 3324 ft | 162 kts | 89° |
| 2026-04-22 10:31 | 51.47648 | -0.76547 | 3083 ft | 161 kts | 89° |
| 2026-04-22 10:31 | 51.47649 | -0.74751 | 2984 ft | 160 kts | 90° |
| 2026-04-22 10:31 | 51.47652 | -0.72956 | 2980 ft | 162 kts | 90° |
| 2026-04-22 10:31 | 51.47661 | -0.71143 | 2948 ft | 162 kts | 89° |
| 2026-04-22 10:32 | 51.47677 | -0.69331 | 2743 ft | 163 kts | 88° |
| 2026-04-22 10:32 | 51.47682 | -0.67531 | 2513 ft | 161 kts | 90° |
| 2026-04-22 10:32 | 51.47682 | -0.65877 | 2294 ft | 163 kts | 88° |
| 2026-04-22 10:32 | 51.47689 | -0.64061 | 2067 ft | 161 kts | 89° |
| 2026-04-22 10:33 | 51.47699 | -0.62318 | 1851 ft | 151 kts | 87° |
| 2026-04-22 10:33 | 51.47706 | -0.60690 | 1638 ft | 142 kts | 88° |
| 2026-04-22 10:33 | 51.47707 | -0.59116 | 1460 ft | 141 kts | 88° |
| 2026-04-22 10:33 | 51.47715 | -0.57595 | 1256 ft | 133 kts | 87° |
| 2026-04-22 10:34 | 51.47722 | -0.56151 | 1076 ft | 126 kts | 86° |
| 2026-04-22 10:34 | 51.47726 | -0.54803 | 897 ft | 116 kts | 87° |
| 2026-04-22 10:34 | 51.47730 | -0.53511 | 750 ft | 116 kts | 88° |
| 2026-04-22 10:34 | 51.47736 | -0.52157 | 555 ft | 120 kts | 89° |
| 2026-04-22 10:35 | 51.47743 | -0.50815 | 407 ft | 122 kts | 91° |
| 2026-04-22 10:35 | 51.47746 | -0.49475 | 237 ft | 117 kts | 90° |
| 2026-04-22 10:35 | 51.47753 | -0.48203 | 110 ft | 115 kts | 89° |
| 2026-04-22 10:35 | 51.47754 | -0.46975 | 98 ft | 95 kts | 91° |
| 2026-04-22 10:36 | 51.47757 | -0.46373 | 97 ft | 11 kts | 90° |
| 2026-04-22 10:36 | 51.47757 | -0.46364 | 97 ft | 1 kts | 90° |
| 2026-04-22 10:36 | 51.47650 | -0.46083 | 96 ft | 33 kts | 152° |
| 2026-04-22 10:36 | 51.47603 | -0.46054 | 96 ft | 0 kts | 186° |